sensor_id;sensor_type;location;lat;lon;timestamp;P1;durP1;ratioP1;P2;durP2;ratioP2
70543;SDS011;58097;48.364;-1.224;2023-07-13T00:00:26;7.38;;;2.17;;
70543;SDS011;58097;48.364;-1.224;2023-07-13T00:02:52;15.00;;;2.65;;
70543;SDS011;58097;48.364;-1.224;2023-07-13T00:05:24;9.70;;;2.25;;
70543;SDS011;58097;48.364;-1.224;2023-07-13T00:07:49;8.63;;;2.08;;
70543;SDS011;58097;48.364;-1.224;2023-07-13T00:10:17;7.18;;;1.55;;
70543;SDS011;58097;48.364;-1.224;2023-07-13T00:12:43;6.32;;;1.70;;
70543;SDS011;58097;48.364;-1.224;2023-07-13T00:15:11;8.25;;;2.15;;
70543;SDS011;58097;48.364;-1.224;2023-07-13T00:17:51;7.47;;;1.95;;
70543;SDS011;58097;48.364;-1.224;2023-07-13T00:20:18;5.20;;;1.90;;
70543;SDS011;58097;48.364;-1.224;2023-07-13T00:22:46;9.10;;;2.30;;
70543;SDS011;58097;48.364;-1.224;2023-07-13T00:25:12;5.70;;;1.80;;
70543;SDS011;58097;48.364;-1.224;2023-07-13T00:27:38;5.88;;;1.80;;
70543;SDS011;58097;48.364;-1.224;2023-07-13T00:30:03;7.72;;;2.22;;
70543;SDS011;58097;48.364;-1.224;2023-07-13T00:32:29;5.07;;;1.92;;
70543;SDS011;58097;48.364;-1.224;2023-07-13T00:34:54;7.00;;;2.00;;
70543;SDS011;58097;48.364;-1.224;2023-07-13T00:37:20;7.03;;;2.30;;
70543;SDS011;58097;48.364;-1.224;2023-07-13T00:39:45;8.02;;;2.45;;
70543;SDS011;58097;48.364;-1.224;2023-07-13T00:42:11;4.68;;;1.58;;
70543;SDS011;58097;48.364;-1.224;2023-07-13T00:44:36;7.53;;;2.00;;
70543;SDS011;58097;48.364;-1.224;2023-07-13T00:47:02;4.55;;;1.63;;
70543;SDS011;58097;48.364;-1.224;2023-07-13T00:49:29;4.88;;;1.92;;
70543;SDS011;58097;48.364;-1.224;2023-07-13T00:54:34;7.60;;;1.70;;
70543;SDS011;58097;48.364;-1.224;2023-07-13T00:57:09;4.35;;;1.50;;
70543;SDS011;58097;48.364;-1.224;2023-07-13T00:59:39;3.58;;;1.70;;
70543;SDS011;58097;48.364;-1.224;2023-07-13T01:02:07;3.40;;;1.60;;
70543;SDS011;58097;48.364;-1.224;2023-07-13T01:04:32;4.45;;;1.95;;
70543;SDS011;58097;48.364;-1.224;2023-07-13T01:06:58;4.03;;;2.20;;
70543;SDS011;58097;48.364;-1.224;2023-07-13T01:09:27;5.65;;;2.10;;
70543;SDS011;58097;48.364;-1.224;2023-07-13T01:11:52;7.25;;;1.95;;
70543;SDS011;58097;48.364;-1.224;2023-07-13T01:14:18;2.60;;;1.67;;
70543;SDS011;58097;48.364;-1.224;2023-07-13T01:16:45;4.50;;;1.67;;
70543;SDS011;58097;48.364;-1.224;2023-07-13T01:19:19;4.43;;;1.58;;
70543;SDS011;58097;48.364;-1.224;2023-07-13T01:21:54;6.45;;;2.53;;
70543;SDS011;58097;48.364;-1.224;2023-07-13T01:24:20;6.85;;;2.45;;
70543;SDS011;58097;48.364;-1.224;2023-07-13T01:26:45;4.43;;;2.15;;
70543;SDS011;58097;48.364;-1.224;2023-07-13T01:29:11;5.50;;;2.15;;
70543;SDS011;58097;48.364;-1.224;2023-07-13T01:31:36;3.13;;;1.52;;
70543;SDS011;58097;48.364;-1.224;2023-07-13T01:34:01;11.77;;;2.03;;
70543;SDS011;58097;48.364;-1.224;2023-07-13T01:36:27;4.47;;;1.80;;
70543;SDS011;58097;48.364;-1.224;2023-07-13T01:38:52;9.85;;;2.13;;
70543;SDS011;58097;48.364;-1.224;2023-07-13T01:41:17;4.82;;;2.22;;
70543;SDS011;58097;48.364;-1.224;2023-07-13T01:43:43;6.35;;;2.40;;
70543;SDS011;58097;48.364;-1.224;2023-07-13T01:46:08;8.05;;;2.42;;
70543;SDS011;58097;48.364;-1.224;2023-07-13T01:48:33;8.13;;;2.33;;
70543;SDS011;58097;48.364;-1.224;2023-07-13T01:50:59;3.45;;;1.92;;
70543;SDS011;58097;48.364;-1.224;2023-07-13T01:53:24;3.05;;;1.33;;
70543;SDS011;58097;48.364;-1.224;2023-07-13T01:55:50;8.23;;;1.95;;
70543;SDS011;58097;48.364;-1.224;2023-07-13T01:58:15;4.18;;;1.67;;
70543;SDS011;58097;48.364;-1.224;2023-07-13T02:00:40;5.93;;;1.45;;
70543;SDS011;58097;48.364;-1.224;2023-07-13T02:03:06;5.40;;;1.80;;
70543;SDS011;58097;48.364;-1.224;2023-07-13T02:05:31;4.63;;;1.33;;
70543;SDS011;58097;48.364;-1.224;2023-07-13T02:07:56;3.08;;;1.45;;
70543;SDS011;58097;48.364;-1.224;2023-07-13T02:10:22;6.30;;;1.92;;
70543;SDS011;58097;48.364;-1.224;2023-07-13T02:12:48;4.93;;;2.13;;
70543;SDS011;58097;48.364;-1.224;2023-07-13T02:15:15;3.75;;;1.27;;
70543;SDS011;58097;48.364;-1.224;2023-07-13T02:17:41;7.50;;;1.88;;
70543;SDS011;58097;48.364;-1.224;2023-07-13T02:20:06;3.55;;;1.65;;
70543;SDS011;58097;48.364;-1.224;2023-07-13T02:22:33;5.53;;;1.85;;
70543;SDS011;58097;48.364;-1.224;2023-07-13T02:24:58;4.88;;;1.80;;
70543;SDS011;58097;48.364;-1.224;2023-07-13T02:27:24;8.45;;;2.17;;
70543;SDS011;58097;48.364;-1.224;2023-07-13T02:29:49;6.82;;;1.70;;
70543;SDS011;58097;48.364;-1.224;2023-07-13T02:32:16;4.85;;;2.15;;
70543;SDS011;58097;48.364;-1.224;2023-07-13T02:34:42;4.85;;;2.20;;
70543;SDS011;58097;48.364;-1.224;2023-07-13T02:37:07;6.80;;;1.60;;
70543;SDS011;58097;48.364;-1.224;2023-07-13T02:39:33;3.75;;;1.95;;
70543;SDS011;58097;48.364;-1.224;2023-07-13T02:41:58;7.68;;;1.65;;
70543;SDS011;58097;48.364;-1.224;2023-07-13T02:44:25;5.63;;;2.25;;
70543;SDS011;58097;48.364;-1.224;2023-07-13T02:46:51;9.80;;;2.03;;
70543;SDS011;58097;48.364;-1.224;2023-07-13T02:49:16;4.72;;;1.58;;
70543;SDS011;58097;48.364;-1.224;2023-07-13T02:51:42;6.90;;;2.63;;
70543;SDS011;58097;48.364;-1.224;2023-07-13T02:54:07;10.90;;;2.00;;
70543;SDS011;58097;48.364;-1.224;2023-07-13T02:56:33;4.50;;;1.70;;
70543;SDS011;58097;48.364;-1.224;2023-07-13T02:58:58;7.32;;;2.33;;
70543;SDS011;58097;48.364;-1.224;2023-07-13T03:01:24;2.38;;;2.10;;
70543;SDS011;58097;48.364;-1.224;2023-07-13T03:03:50;5.75;;;2.05;;
70543;SDS011;58097;48.364;-1.224;2023-07-13T03:06:16;4.10;;;2.00;;
70543;SDS011;58097;48.364;-1.224;2023-07-13T03:08:43;7.43;;;1.77;;
70543;SDS011;58097;48.364;-1.224;2023-07-13T03:11:11;5.85;;;2.13;;
70543;SDS011;58097;48.364;-1.224;2023-07-13T03:13:39;7.07;;;2.50;;
70543;SDS011;58097;48.364;-1.224;2023-07-13T03:16:05;4.85;;;2.47;;
70543;SDS011;58097;48.364;-1.224;2023-07-13T03:18:31;7.82;;;2.03;;
70543;SDS011;58097;48.364;-1.224;2023-07-13T03:20:56;9.07;;;2.38;;
70543;SDS011;58097;48.364;-1.224;2023-07-13T03:23:22;9.57;;;2.42;;
70543;SDS011;58097;48.364;-1.224;2023-07-13T03:25:50;5.88;;;1.90;;
70543;SDS011;58097;48.364;-1.224;2023-07-13T03:28:15;6.72;;;1.95;;
70543;SDS011;58097;48.364;-1.224;2023-07-13T03:30:41;5.60;;;2.10;;
70543;SDS011;58097;48.364;-1.224;2023-07-13T03:33:07;4.30;;;2.53;;
70543;SDS011;58097;48.364;-1.224;2023-07-13T03:35:33;3.45;;;2.05;;
70543;SDS011;58097;48.364;-1.224;2023-07-13T03:37:59;3.33;;;2.63;;
70543;SDS011;58097;48.364;-1.224;2023-07-13T03:40:25;3.92;;;1.98;;
70543;SDS011;58097;48.364;-1.224;2023-07-13T03:42:52;7.95;;;2.65;;
70543;SDS011;58097;48.364;-1.224;2023-07-13T03:45:18;2.58;;;1.40;;
70543;SDS011;58097;48.364;-1.224;2023-07-13T03:47:43;11.48;;;2.58;;
70543;SDS011;58097;48.364;-1.224;2023-07-13T03:50:09;6.20;;;1.95;;
70543;SDS011;58097;48.364;-1.224;2023-07-13T03:52:35;5.13;;;2.42;;
70543;SDS011;58097;48.364;-1.224;2023-07-13T03:55:00;4.50;;;2.00;;
70543;SDS011;58097;48.364;-1.224;2023-07-13T03:57:25;6.88;;;2.13;;
70543;SDS011;58097;48.364;-1.224;2023-07-13T03:59:51;5.03;;;2.17;;
70543;SDS011;58097;48.364;-1.224;2023-07-13T04:02:16;6.65;;;2.30;;
70543;SDS011;58097;48.364;-1.224;2023-07-13T04:04:42;4.90;;;2.00;;
70543;SDS011;58097;48.364;-1.224;2023-07-13T04:07:08;5.47;;;2.40;;
70543;SDS011;58097;48.364;-1.224;2023-07-13T04:09:34;3.38;;;2.17;;
70543;SDS011;58097;48.364;-1.224;2023-07-13T04:11:59;4.13;;;1.98;;
70543;SDS011;58097;48.364;-1.224;2023-07-13T04:14:25;6.43;;;2.50;;
70543;SDS011;58097;48.364;-1.224;2023-07-13T04:16:50;10.98;;;2.50;;
70543;SDS011;58097;48.364;-1.224;2023-07-13T04:19:15;4.63;;;2.58;;
70543;SDS011;58097;48.364;-1.224;2023-07-13T04:21:41;6.18;;;1.70;;
70543;SDS011;58097;48.364;-1.224;2023-07-13T04:24:06;2.65;;;1.60;;
70543;SDS011;58097;48.364;-1.224;2023-07-13T04:26:32;3.33;;;2.03;;
70543;SDS011;58097;48.364;-1.224;2023-07-13T04:29:00;10.63;;;2.60;;
70543;SDS011;58097;48.364;-1.224;2023-07-13T04:31:28;3.53;;;2.00;;
70543;SDS011;58097;48.364;-1.224;2023-07-13T04:33:54;7.15;;;2.28;;
70543;SDS011;58097;48.364;-1.224;2023-07-13T04:36:19;2.58;;;1.85;;
70543;SDS011;58097;48.364;-1.224;2023-07-13T04:38:45;7.10;;;2.50;;
70543;SDS011;58097;48.364;-1.224;2023-07-13T04:41:10;5.57;;;2.15;;
70543;SDS011;58097;48.364;-1.224;2023-07-13T04:43:36;7.95;;;2.45;;
70543;SDS011;58097;48.364;-1.224;2023-07-13T04:46:06;8.13;;;2.50;;
70543;SDS011;58097;48.364;-1.224;2023-07-13T04:48:38;9.43;;;2.20;;
70543;SDS011;58097;48.364;-1.224;2023-07-13T04:51:04;5.72;;;2.17;;
70543;SDS011;58097;48.364;-1.224;2023-07-13T04:53:30;7.75;;;2.15;;
70543;SDS011;58097;48.364;-1.224;2023-07-13T04:55:56;2.95;;;2.40;;
70543;SDS011;58097;48.364;-1.224;2023-07-13T04:58:22;4.57;;;2.15;;
70543;SDS011;58097;48.364;-1.224;2023-07-13T05:00:47;6.38;;;2.85;;
70543;SDS011;58097;48.364;-1.224;2023-07-13T05:03:13;3.80;;;2.35;;
70543;SDS011;58097;48.364;-1.224;2023-07-13T05:05:39;6.53;;;2.45;;
70543;SDS011;58097;48.364;-1.224;2023-07-13T05:08:04;6.43;;;2.25;;
70543;SDS011;58097;48.364;-1.224;2023-07-13T05:10:29;7.90;;;2.28;;
70543;SDS011;58097;48.364;-1.224;2023-07-13T05:12:55;7.20;;;2.47;;
70543;SDS011;58097;48.364;-1.224;2023-07-13T05:15:21;5.85;;;2.67;;
70543;SDS011;58097;48.364;-1.224;2023-07-13T05:17:47;10.55;;;2.63;;
70543;SDS011;58097;48.364;-1.224;2023-07-13T05:20:14;3.70;;;1.77;;
70543;SDS011;58097;48.364;-1.224;2023-07-13T05:22:39;4.28;;;2.08;;
70543;SDS011;58097;48.364;-1.224;2023-07-13T05:25:05;7.22;;;2.20;;
70543;SDS011;58097;48.364;-1.224;2023-07-13T05:27:31;6.20;;;2.58;;
70543;SDS011;58097;48.364;-1.224;2023-07-13T05:29:57;7.32;;;1.92;;
70543;SDS011;58097;48.364;-1.224;2023-07-13T05:32:22;12.68;;;3.15;;
70543;SDS011;58097;48.364;-1.224;2023-07-13T05:34:48;6.22;;;2.17;;
70543;SDS011;58097;48.364;-1.224;2023-07-13T05:37:13;4.75;;;2.63;;
70543;SDS011;58097;48.364;-1.224;2023-07-13T05:39:38;7.75;;;2.67;;
70543;SDS011;58097;48.364;-1.224;2023-07-13T05:42:04;6.75;;;2.92;;
70543;SDS011;58097;48.364;-1.224;2023-07-13T05:44:30;5.28;;;2.30;;
70543;SDS011;58097;48.364;-1.224;2023-07-13T05:46:57;9.85;;;2.75;;
70543;SDS011;58097;48.364;-1.224;2023-07-13T05:49:22;6.28;;;2.17;;
70543;SDS011;58097;48.364;-1.224;2023-07-13T05:51:48;4.68;;;2.75;;
70543;SDS011;58097;48.364;-1.224;2023-07-13T05:54:13;6.45;;;2.42;;
70543;SDS011;58097;48.364;-1.224;2023-07-13T05:56:39;7.28;;;2.35;;
70543;SDS011;58097;48.364;-1.224;2023-07-13T05:59:04;10.57;;;2.47;;
70543;SDS011;58097;48.364;-1.224;2023-07-13T06:01:30;6.30;;;2.65;;
70543;SDS011;58097;48.364;-1.224;2023-07-13T06:03:56;4.68;;;2.70;;
70543;SDS011;58097;48.364;-1.224;2023-07-13T06:06:21;8.15;;;2.83;;
70543;SDS011;58097;48.364;-1.224;2023-07-13T06:08:46;8.77;;;2.25;;
70543;SDS011;58097;48.364;-1.224;2023-07-13T06:11:19;5.72;;;2.42;;
70543;SDS011;58097;48.364;-1.224;2023-07-13T06:13:46;7.68;;;3.20;;
70543;SDS011;58097;48.364;-1.224;2023-07-13T06:16:11;8.07;;;2.78;;
70543;SDS011;58097;48.364;-1.224;2023-07-13T06:18:38;3.13;;;2.05;;
70543;SDS011;58097;48.364;-1.224;2023-07-13T06:21:08;4.85;;;2.10;;
70543;SDS011;58097;48.364;-1.224;2023-07-13T06:23:35;8.80;;;2.70;;
70543;SDS011;58097;48.364;-1.224;2023-07-13T06:26:01;7.55;;;2.60;;
70543;SDS011;58097;48.364;-1.224;2023-07-13T06:28:27;9.18;;;3.22;;
70543;SDS011;58097;48.364;-1.224;2023-07-13T06:30:54;5.38;;;2.15;;
70543;SDS011;58097;48.364;-1.224;2023-07-13T06:33:19;6.82;;;2.55;;
70543;SDS011;58097;48.364;-1.224;2023-07-13T06:35:44;6.72;;;2.63;;
70543;SDS011;58097;48.364;-1.224;2023-07-13T06:38:10;6.88;;;2.50;;
70543;SDS011;58097;48.364;-1.224;2023-07-13T06:40:35;15.25;;;3.35;;
70543;SDS011;58097;48.364;-1.224;2023-07-13T06:43:00;10.13;;;2.92;;
70543;SDS011;58097;48.364;-1.224;2023-07-13T06:45:26;9.40;;;2.40;;
70543;SDS011;58097;48.364;-1.224;2023-07-13T06:47:51;6.88;;;2.45;;
70543;SDS011;58097;48.364;-1.224;2023-07-13T06:50:16;7.82;;;2.67;;
70543;SDS011;58097;48.364;-1.224;2023-07-13T06:52:42;10.18;;;3.42;;
70543;SDS011;58097;48.364;-1.224;2023-07-13T06:55:07;5.75;;;2.30;;
70543;SDS011;58097;48.364;-1.224;2023-07-13T06:57:33;10.20;;;2.83;;
70543;SDS011;58097;48.364;-1.224;2023-07-13T06:59:58;4.53;;;2.72;;
70543;SDS011;58097;48.364;-1.224;2023-07-13T07:02:24;6.30;;;2.53;;
70543;SDS011;58097;48.364;-1.224;2023-07-13T07:04:49;5.70;;;2.22;;
70543;SDS011;58097;48.364;-1.224;2023-07-13T07:07:15;9.10;;;2.22;;
70543;SDS011;58097;48.364;-1.224;2023-07-13T07:09:40;9.70;;;2.92;;
70543;SDS011;58097;48.364;-1.224;2023-07-13T07:12:06;10.30;;;2.88;;
70543;SDS011;58097;48.364;-1.224;2023-07-13T07:14:31;4.78;;;2.15;;
70543;SDS011;58097;48.364;-1.224;2023-07-13T07:16:59;5.65;;;2.55;;
70543;SDS011;58097;48.364;-1.224;2023-07-13T07:19:24;4.07;;;2.45;;
70543;SDS011;58097;48.364;-1.224;2023-07-13T07:21:50;11.52;;;2.80;;
70543;SDS011;58097;48.364;-1.224;2023-07-13T07:24:15;9.77;;;2.95;;
70543;SDS011;58097;48.364;-1.224;2023-07-13T07:26:40;3.08;;;1.73;;
70543;SDS011;58097;48.364;-1.224;2023-07-13T07:29:06;6.85;;;2.25;;
70543;SDS011;58097;48.364;-1.224;2023-07-13T07:31:31;3.95;;;2.35;;
70543;SDS011;58097;48.364;-1.224;2023-07-13T07:33:57;5.43;;;2.35;;
70543;SDS011;58097;48.364;-1.224;2023-07-13T07:36:22;4.43;;;2.10;;
70543;SDS011;58097;48.364;-1.224;2023-07-13T07:38:47;3.60;;;2.17;;
70543;SDS011;58097;48.364;-1.224;2023-07-13T07:41:13;7.10;;;1.95;;
70543;SDS011;58097;48.364;-1.224;2023-07-13T07:43:39;7.95;;;2.60;;
70543;SDS011;58097;48.364;-1.224;2023-07-13T07:46:04;11.48;;;2.20;;
70543;SDS011;58097;48.364;-1.224;2023-07-13T07:48:30;13.80;;;2.85;;
70543;SDS011;58097;48.364;-1.224;2023-07-13T07:50:55;11.50;;;3.03;;
70543;SDS011;58097;48.364;-1.224;2023-07-13T07:53:21;6.30;;;2.25;;
70543;SDS011;58097;48.364;-1.224;2023-07-13T07:55:46;6.28;;;1.80;;
70543;SDS011;58097;48.364;-1.224;2023-07-13T07:58:12;4.70;;;2.25;;
70543;SDS011;58097;48.364;-1.224;2023-07-13T08:00:38;6.70;;;2.00;;
70543;SDS011;58097;48.364;-1.224;2023-07-13T08:03:03;2.58;;;2.00;;
70543;SDS011;58097;48.364;-1.224;2023-07-13T08:05:28;10.55;;;2.30;;
70543;SDS011;58097;48.364;-1.224;2023-07-13T08:07:53;7.13;;;2.47;;
70543;SDS011;58097;48.364;-1.224;2023-07-13T08:10:19;6.15;;;2.28;;
70543;SDS011;58097;48.364;-1.224;2023-07-13T08:12:45;5.88;;;2.15;;
70543;SDS011;58097;48.364;-1.224;2023-07-13T08:15:14;5.80;;;2.60;;
70543;SDS011;58097;48.364;-1.224;2023-07-13T08:17:41;4.25;;;2.08;;
70543;SDS011;58097;48.364;-1.224;2023-07-13T08:20:07;5.28;;;2.13;;
70543;SDS011;58097;48.364;-1.224;2023-07-13T08:22:34;7.03;;;2.40;;
70543;SDS011;58097;48.364;-1.224;2023-07-13T08:25:00;6.45;;;2.13;;
70543;SDS011;58097;48.364;-1.224;2023-07-13T08:27:27;7.82;;;2.35;;
70543;SDS011;58097;48.364;-1.224;2023-07-13T08:29:53;13.88;;;2.50;;
70543;SDS011;58097;48.364;-1.224;2023-07-13T08:32:19;4.90;;;1.67;;
70543;SDS011;58097;48.364;-1.224;2023-07-13T08:34:45;5.70;;;1.83;;
70543;SDS011;58097;48.364;-1.224;2023-07-13T08:37:11;4.53;;;1.58;;
70543;SDS011;58097;48.364;-1.224;2023-07-13T08:39:37;4.72;;;2.03;;
70543;SDS011;58097;48.364;-1.224;2023-07-13T08:42:06;3.08;;;1.75;;
70543;SDS011;58097;48.364;-1.224;2023-07-13T08:45:04;6.10;;;2.42;;
70543;SDS011;58097;48.364;-1.224;2023-07-13T08:47:46;4.65;;;1.92;;
70543;SDS011;58097;48.364;-1.224;2023-07-13T08:50:18;10.02;;;2.53;;
70543;SDS011;58097;48.364;-1.224;2023-07-13T08:52:46;5.53;;;1.88;;
70543;SDS011;58097;48.364;-1.224;2023-07-13T08:55:16;6.40;;;1.90;;
70543;SDS011;58097;48.364;-1.224;2023-07-13T08:57:46;6.95;;;2.20;;
70543;SDS011;58097;48.364;-1.224;2023-07-13T09:00:18;3.17;;;1.83;;
70543;SDS011;58097;48.364;-1.224;2023-07-13T09:02:49;12.32;;;2.33;;
70543;SDS011;58097;48.364;-1.224;2023-07-13T09:05:29;5.47;;;1.83;;
70543;SDS011;58097;48.364;-1.224;2023-07-13T09:08:38;3.50;;;1.90;;
70543;SDS011;58097;48.364;-1.224;2023-07-13T09:10:58;6.20;;;1.60;;
70543;SDS011;58097;48.364;-1.224;2023-07-13T09:16:15;4.82;;;1.92;;
70543;SDS011;58097;48.364;-1.224;2023-07-13T09:18:44;5.75;;;2.03;;
70543;SDS011;58097;48.364;-1.224;2023-07-13T09:23:47;4.95;;;1.63;;
70543;SDS011;58097;48.364;-1.224;2023-07-13T09:26:22;3.05;;;1.50;;
70543;SDS011;58097;48.364;-1.224;2023-07-13T09:28:50;6.40;;;1.55;;
70543;SDS011;58097;48.364;-1.224;2023-07-13T09:31:23;9.07;;;1.42;;
70543;SDS011;58097;48.364;-1.224;2023-07-13T09:33:54;3.55;;;0.98;;
70543;SDS011;58097;48.364;-1.224;2023-07-13T09:36:21;5.15;;;1.00;;
70543;SDS011;58097;48.364;-1.224;2023-07-13T09:38:53;1.63;;;1.15;;
70543;SDS011;58097;48.364;-1.224;2023-07-13T09:41:50;2.10;;;1.40;;
70543;SDS011;58097;48.364;-1.224;2023-07-13T09:44:34;3.47;;;1.67;;
70543;SDS011;58097;48.364;-1.224;2023-07-13T09:47:01;5.13;;;1.85;;
70543;SDS011;58097;48.364;-1.224;2023-07-13T09:49:33;4.40;;;1.30;;
70543;SDS011;58097;48.364;-1.224;2023-07-13T09:52:04;7.00;;;1.40;;
70543;SDS011;58097;48.364;-1.224;2023-07-13T09:54:35;2.33;;;1.30;;
70543;SDS011;58097;48.364;-1.224;2023-07-13T09:57:02;3.90;;;1.65;;
70543;SDS011;58097;48.364;-1.224;2023-07-13T09:59:39;2.83;;;1.38;;
70543;SDS011;58097;48.364;-1.224;2023-07-13T10:05:04;2.95;;;1.45;;
70543;SDS011;58097;48.364;-1.224;2023-07-13T10:07:31;4.05;;;1.35;;
70543;SDS011;58097;48.364;-1.224;2023-07-13T10:10:02;4.18;;;1.35;;
70543;SDS011;58097;48.364;-1.224;2023-07-13T10:12:29;4.97;;;1.67;;
70543;SDS011;58097;48.364;-1.224;2023-07-13T10:15:00;1.98;;;1.08;;
70543;SDS011;58097;48.364;-1.224;2023-07-13T10:17:27;6.18;;;1.67;;
70543;SDS011;58097;48.364;-1.224;2023-07-13T10:20:01;7.40;;;1.48;;
70543;SDS011;58097;48.364;-1.224;2023-07-13T10:25:17;3.25;;;1.38;;
70543;SDS011;58097;48.364;-1.224;2023-07-13T10:27:44;3.45;;;1.40;;
70543;SDS011;58097;48.364;-1.224;2023-07-13T10:30:24;2.75;;;1.27;;
70543;SDS011;58097;48.364;-1.224;2023-07-13T10:32:57;4.40;;;1.40;;
70543;SDS011;58097;48.364;-1.224;2023-07-13T10:35:24;1.83;;;1.23;;
70543;SDS011;58097;48.364;-1.224;2023-07-13T10:37:55;3.25;;;1.30;;
70543;SDS011;58097;48.364;-1.224;2023-07-13T10:40:29;3.30;;;1.35;;
70543;SDS011;58097;48.364;-1.224;2023-07-13T10:42:59;7.10;;;1.40;;
70543;SDS011;58097;48.364;-1.224;2023-07-13T10:45:30;3.53;;;1.40;;
70543;SDS011;58097;48.364;-1.224;2023-07-13T10:48:00;4.63;;;1.30;;
70543;SDS011;58097;48.364;-1.224;2023-07-13T10:50:26;5.03;;;1.50;;
70543;SDS011;58097;48.364;-1.224;2023-07-13T10:52:55;4.63;;;1.83;;
70543;SDS011;58097;48.364;-1.224;2023-07-13T10:55:35;2.53;;;1.17;;
70543;SDS011;58097;48.364;-1.224;2023-07-13T10:58:35;4.20;;;1.17;;
70543;SDS011;58097;48.364;-1.224;2023-07-13T11:01:06;2.15;;;1.45;;
70543;SDS011;58097;48.364;-1.224;2023-07-13T11:03:32;1.70;;;1.15;;
70543;SDS011;58097;48.364;-1.224;2023-07-13T11:06:04;2.05;;;0.82;;
70543;SDS011;58097;48.364;-1.224;2023-07-13T11:08:35;1.58;;;1.23;;
70543;SDS011;58097;48.364;-1.224;2023-07-13T11:13:56;4.10;;;1.48;;
70543;SDS011;58097;48.364;-1.224;2023-07-13T11:16:43;6.22;;;1.60;;
70543;SDS011;58097;48.364;-1.224;2023-07-13T11:22:01;4.68;;;1.58;;
70543;SDS011;58097;48.364;-1.224;2023-07-13T11:24:30;4.13;;;1.27;;
70543;SDS011;58097;48.364;-1.224;2023-07-13T11:27:24;4.13;;;1.48;;
70543;SDS011;58097;48.364;-1.224;2023-07-13T11:30:06;4.45;;;1.85;;
70543;SDS011;58097;48.364;-1.224;2023-07-13T11:38:21;2.72;;;1.25;;
70543;SDS011;58097;48.364;-1.224;2023-07-13T11:43:16;2.22;;;1.10;;
70543;SDS011;58097;48.364;-1.224;2023-07-13T11:45:42;3.83;;;1.75;;
70543;SDS011;58097;48.364;-1.224;2023-07-13T11:51:04;6.78;;;1.77;;
70543;SDS011;58097;48.364;-1.224;2023-07-13T11:53:34;1.65;;;1.08;;
70543;SDS011;58097;48.364;-1.224;2023-07-13T11:56:05;2.88;;;1.23;;
70543;SDS011;58097;48.364;-1.224;2023-07-13T11:58:31;3.13;;;1.73;;
70543;SDS011;58097;48.364;-1.224;2023-07-13T12:00:58;2.60;;;1.02;;
70543;SDS011;58097;48.364;-1.224;2023-07-13T12:03:29;2.55;;;1.38;;
70543;SDS011;58097;48.364;-1.224;2023-07-13T12:05:58;1.90;;;1.15;;
70543;SDS011;58097;48.364;-1.224;2023-07-13T12:08:24;3.50;;;1.40;;
70543;SDS011;58097;48.364;-1.224;2023-07-13T12:10:55;3.05;;;1.45;;
70543;SDS011;58097;48.364;-1.224;2023-07-13T12:13:22;1.85;;;1.50;;
70543;SDS011;58097;48.364;-1.224;2023-07-13T12:15:47;5.07;;;1.50;;
70543;SDS011;58097;48.364;-1.224;2023-07-13T12:18:15;3.30;;;1.58;;
70543;SDS011;58097;48.364;-1.224;2023-07-13T12:20:43;1.77;;;1.15;;
70543;SDS011;58097;48.364;-1.224;2023-07-13T12:23:21;2.85;;;1.40;;
70543;SDS011;58097;48.364;-1.224;2023-07-13T12:25:50;4.72;;;1.00;;
70543;SDS011;58097;48.364;-1.224;2023-07-13T12:28:23;3.42;;;1.45;;
70543;SDS011;58097;48.364;-1.224;2023-07-13T12:30:59;1.98;;;1.30;;
70543;SDS011;58097;48.364;-1.224;2023-07-13T12:33:27;1.48;;;1.00;;
70543;SDS011;58097;48.364;-1.224;2023-07-13T12:37:00;2.05;;;1.50;;
70543;SDS011;58097;48.364;-1.224;2023-07-13T12:39:34;1.70;;;1.38;;
70543;SDS011;58097;48.364;-1.224;2023-07-13T12:42:19;5.35;;;1.40;;
70543;SDS011;58097;48.364;-1.224;2023-07-13T12:47:24;2.53;;;1.23;;
70543;SDS011;58097;48.364;-1.224;2023-07-13T12:49:53;2.05;;;1.20;;
70543;SDS011;58097;48.364;-1.224;2023-07-13T12:52:22;2.40;;;1.48;;
70543;SDS011;58097;48.364;-1.224;2023-07-13T12:54:52;3.70;;;1.33;;
70543;SDS011;58097;48.364;-1.224;2023-07-13T12:57:22;3.10;;;1.20;;
70543;SDS011;58097;48.364;-1.224;2023-07-13T12:59:51;3.35;;;1.60;;
70543;SDS011;58097;48.364;-1.224;2023-07-13T13:02:30;3.08;;;1.23;;
70543;SDS011;58097;48.364;-1.224;2023-07-13T13:04:59;3.55;;;1.45;;
70543;SDS011;58097;48.364;-1.224;2023-07-13T13:07:25;4.25;;;1.27;;
70543;SDS011;58097;48.364;-1.224;2023-07-13T13:09:51;2.78;;;1.50;;
70543;SDS011;58097;48.364;-1.224;2023-07-13T13:12:18;3.00;;;1.45;;
70543;SDS011;58097;48.364;-1.224;2023-07-13T13:14:44;4.72;;;1.67;;
70543;SDS011;58097;48.364;-1.224;2023-07-13T13:17:18;2.30;;;1.30;;
70543;SDS011;58097;48.364;-1.224;2023-07-13T13:19:46;3.35;;;1.42;;
70543;SDS011;58097;48.364;-1.224;2023-07-13T13:22:12;2.33;;;1.55;;
70543;SDS011;58097;48.364;-1.224;2023-07-13T13:24:38;1.65;;;1.30;;
70543;SDS011;58097;48.364;-1.224;2023-07-13T13:27:04;2.85;;;1.20;;
70543;SDS011;58097;48.364;-1.224;2023-07-13T13:29:32;2.33;;;1.50;;
70543;SDS011;58097;48.364;-1.224;2023-07-13T13:32:00;2.60;;;1.73;;
70543;SDS011;58097;48.364;-1.224;2023-07-13T13:34:25;2.22;;;1.67;;
70543;SDS011;58097;48.364;-1.224;2023-07-13T13:36:51;1.92;;;1.33;;
70543;SDS011;58097;48.364;-1.224;2023-07-13T13:39:24;2.35;;;1.77;;
70543;SDS011;58097;48.364;-1.224;2023-07-13T13:41:59;3.65;;;1.30;;
70543;SDS011;58097;48.364;-1.224;2023-07-13T13:44:25;3.88;;;1.85;;
70543;SDS011;58097;48.364;-1.224;2023-07-13T13:46:51;1.85;;;1.45;;
70543;SDS011;58097;48.364;-1.224;2023-07-13T13:49:20;1.92;;;1.70;;
70543;SDS011;58097;48.364;-1.224;2023-07-13T13:51:48;3.08;;;1.50;;
70543;SDS011;58097;48.364;-1.224;2023-07-13T13:54:15;3.60;;;1.90;;
70543;SDS011;58097;48.364;-1.224;2023-07-13T13:56:46;5.55;;;1.58;;
70543;SDS011;58097;48.364;-1.224;2023-07-13T13:59:13;3.23;;;1.53;;
70543;SDS011;58097;48.364;-1.224;2023-07-13T14:01:39;4.47;;;1.35;;
70543;SDS011;58097;48.364;-1.224;2023-07-13T14:04:06;2.72;;;1.70;;
70543;SDS011;58097;48.364;-1.224;2023-07-13T14:06:34;4.13;;;1.77;;
70543;SDS011;58097;48.364;-1.224;2023-07-13T14:09:00;3.42;;;1.55;;
70543;SDS011;58097;48.364;-1.224;2023-07-13T14:11:27;3.40;;;1.67;;
70543;SDS011;58097;48.364;-1.224;2023-07-13T14:13:54;4.53;;;1.55;;
70543;SDS011;58097;48.364;-1.224;2023-07-13T14:16:24;3.25;;;1.40;;
70543;SDS011;58097;48.364;-1.224;2023-07-13T14:18:54;2.78;;;1.63;;
70543;SDS011;58097;48.364;-1.224;2023-07-13T14:21:23;2.60;;;1.55;;
70543;SDS011;58097;48.364;-1.224;2023-07-13T14:23:49;3.78;;;1.55;;
70543;SDS011;58097;48.364;-1.224;2023-07-13T14:28:46;2.08;;;1.30;;
70543;SDS011;58097;48.364;-1.224;2023-07-13T14:31:15;3.35;;;2.15;;
70543;SDS011;58097;48.364;-1.224;2023-07-13T14:33:41;4.68;;;1.63;;
70543;SDS011;58097;48.364;-1.224;2023-07-13T14:38:41;4.30;;;1.75;;
70543;SDS011;58097;48.364;-1.224;2023-07-13T14:41:07;2.38;;;1.50;;
70543;SDS011;58097;48.364;-1.224;2023-07-13T14:43:33;6.00;;;1.52;;
70543;SDS011;58097;48.364;-1.224;2023-07-13T14:45:58;5.60;;;1.50;;
70543;SDS011;58097;48.364;-1.224;2023-07-13T14:48:24;3.03;;;1.50;;
70543;SDS011;58097;48.364;-1.224;2023-07-13T14:50:51;2.55;;;1.60;;
70543;SDS011;58097;48.364;-1.224;2023-07-13T14:53:19;4.97;;;1.65;;
70543;SDS011;58097;48.364;-1.224;2023-07-13T14:55:45;3.30;;;1.45;;
70543;SDS011;58097;48.364;-1.224;2023-07-13T14:58:10;4.00;;;1.67;;
70543;SDS011;58097;48.364;-1.224;2023-07-13T15:00:35;1.23;;;0.93;;
70543;SDS011;58097;48.364;-1.224;2023-07-13T15:03:02;4.22;;;1.23;;
70543;SDS011;58097;48.364;-1.224;2023-07-13T15:05:29;3.28;;;1.30;;
70543;SDS011;58097;48.364;-1.224;2023-07-13T15:07:57;2.65;;;1.45;;
70543;SDS011;58097;48.364;-1.224;2023-07-13T15:10:33;2.22;;;1.40;;
70543;SDS011;58097;48.364;-1.224;2023-07-13T15:15:45;2.45;;;1.42;;
70543;SDS011;58097;48.364;-1.224;2023-07-13T15:18:13;1.60;;;1.40;;